Latest Weather Observations for Devonport Airport

IDT60801

Issued at 10:02 am EDT Saturday 20 December 2014 (issued every 30 minutes, with the page automatically refreshed every 10 minutes)

About weather observations | Map of weather stations | Latest weather observations for TAS | Other Formats
Station Details ID: 091126 Name: DEVONPORT AIRPORT Lat: -41.17 Lon: 146.43 Height: 8.0 m
Data from the previous 72 hours. | See also: Recent months at Devonport Airport
Date/Time
EDT
Temp
°C
App
Temp
°C
Dew
Point
Rel
Hum
%
Delta-T
°C
Wind Press
QNH
hPa
Press
MSL
hPa
Rain
since 9 am
mm
Dir
 
Spd
km/h
Gust
km/h
Spd
kts
Gust
kts
20/10:00am 17.5 11.9 13.4 77 2.3 NW 35 43 19 23 1013.8 1013.8 -
20/09:30am 17.1 12.2 13.6 80 2.0 NW 32 39 17 21 1014.0 1014.0 0.0
20/09:00am 16.2 10.9 12.6 79 2.0 WNW 32 39 17 21 1014.1 1014.1 0.0
20/08:30am 16.1 11.2 12.7 80 1.9 WNW 30 35 16 19 1014.2 1014.2 0.0
20/08:00am 15.6 10.6 12.2 80 1.9 WNW 30 35 16 19 1013.9 1013.9 0.0
20/07:30am 15.2 10.5 12.0 81 1.7 WNW 28 35 15 19 1013.8 1013.8 0.0
20/06:30am 14.2 9.3 11.4 83 1.5 WNW 28 33 15 18 1013.6 1013.6 0.0
20/05:30am 13.6 9.3 10.8 83 1.5 WNW 24 30 13 16 1013.4 1013.4 0.0
20/05:00am 13.5 8.8 10.7 83 1.5 WNW 26 33 14 18 1013.3 1013.3 0.0
20/04:30am 13.4 8.7 10.8 84 1.4 W 26 33 14 18 1013.3 1013.3 0.0
20/04:00am 13.1 7.9 10.1 82 1.5 W 28 33 15 18 1013.4 1013.4 0.0
20/03:30am 13.3 8.5 10.3 82 1.6 W 26 35 14 19 1013.6 1013.6 0.0
20/03:00am 13.4 8.5 9.8 79 1.8 WNW 26 32 14 17 1013.9 1013.9 0.0
20/02:30am 13.4 8.3 9.3 76 2.1 WNW 26 33 14 18 1014.3 1014.3 0.0
20/02:00am 13.4 8.2 8.9 74 2.3 WNW 26 32 14 17 1014.7 1014.7 0.0
20/01:30am 13.4 9.2 8.3 71 2.5 WNW 20 28 11 15 1015.3 1015.3 0.0
20/01:00am 13.3 8.6 7.7 69 2.7 W 22 26 12 14 1015.6 1015.6 0.0
20/12:30am 13.2 9.4 7.6 69 2.7 W 17 26 9 14 1015.9 1015.9 0.0
 
Date/Time
EDT
Temp
°C
App
Temp
°C
Dew
Point
Rel
Hum
%
Delta-T
°C
Wind Press
QNH
hPa
Press
MSL
hPa
Rain
since 9 am
mm
Dir
 
Spd
km/h
Gust
km/h
Spd
kts
Gust
kts
19/11:30pm 13.1 9.5 6.9 66 3.0 W 15 19 8 10 1016.2 1016.2 0.0
19/11:00pm 13.2 9.5 6.5 64 3.2 W 15 20 8 11 1016.6 1016.6 0.0
19/10:30pm 13.5 8.0 6.1 61 3.5 W 24 28 13 15 1016.4 1016.4 0.0
19/10:00pm 13.8 10.0 5.9 59 3.7 WSW 15 20 8 11 1016.3 1016.3 0.0
19/09:30pm 14.1 8.9 5.5 56 4.1 WSW 22 30 12 16 1016.2 1016.2 0.0
19/09:00pm 14.2 11.5 5.6 56 4.1 SW 9 24 5 13 1015.8 1015.8 0.0
19/08:30pm 14.9 10.0 5.1 52 4.6 SW 20 28 11 15 1015.8 1015.8 0.0
19/08:00pm 15.2 10.0 5.7 53 4.5 WSW 22 32 12 17 1015.7 1015.7 0.0
19/07:30pm 16.4 11.3 6.0 50 5.0 WSW 22 32 12 17 1014.9 1014.9 0.0
19/07:00pm 16.6 12.3 5.3 47 5.4 WSW 17 22 9 12 1014.5 1014.5 0.0
19/06:30pm 16.8 9.8 4.2 43 5.9 WSW 30 37 16 20 1014.2 1014.2 0.0
19/06:00pm 17.3 11.9 4.6 43 6.0 WSW 22 30 12 16 1013.9 1013.9 0.0
19/05:30pm 17.8 12.7 4.0 40 6.5 SW 20 30 11 16 1013.7 1013.7 0.0
19/05:00pm 18.1 11.8 3.6 38 6.8 WSW 26 35 14 19 1013.4 1013.4 0.0
19/04:30pm 18.9 12.2 3.5 36 7.2 W 28 37 15 20 1013.2 1013.2 0.0
19/04:00pm 19.0 12.1 4.4 38 7.0 W 30 39 16 21 1013.3 1013.3 0.0
19/03:30pm 19.4 14.6 4.7 38 7.1 WSW 19 28 10 15 1013.3 1013.3 0.0
19/03:00pm 18.4 12.3 2.7 35 7.2 WSW 24 37 13 20 1013.2 1013.2 0.0
19/02:30pm 18.6 12.6 3.3 36 7.1 WSW 24 32 13 17 1013.2 1013.2 0.0
19/02:00pm 18.0 13.1 3.9 39 6.6 WSW 19 26 10 14 1013.2 1013.2 0.0
19/01:30pm 19.1 13.4 4.8 39 6.9 W 24 33 13 18 1013.3 1013.3 0.0
19/01:00pm 19.2 13.5 6.7 44 6.3 WSW 26 37 14 20 1013.4 1013.4 0.0
19/12:30pm 18.8 12.7 4.6 39 6.8 WSW 26 39 14 21 1013.2 1013.2 0.0
19/12:00pm 18.7 15.0 4.5 39 6.8 WSW 13 33 7 18 1013.2 1013.2 0.0
19/11:30am 17.7 13.1 3.9 40 6.5 SW 17 30 9 16 1013.4 1013.4 0.0
19/11:00am 17.1 11.0 4.8 44 5.8 W 26 35 14 19 1013.2 1013.2 0.0
19/10:30am 16.2 11.4 5.5 49 5.1 WSW 20 32 11 17 1013.4 1013.4 0.0
19/10:00am 16.0 11.4 6.4 53 4.7 WSW 20 28 11 15 1013.6 1013.6 0.0
19/09:30am 15.3 10.7 5.5 52 4.7 WSW 19 28 10 15 1013.6 1013.6 0.0
19/09:00am 13.9 10.4 5.5 57 4.0 WNW 13 20 7 11 1013.6 1013.6 1.8
19/08:30am 13.6 9.9 6.2 61 3.5 WSW 15 20 8 11 1013.2 1013.2 1.8
19/08:00am 12.6 9.4 5.1 60 3.5 W 11 15 6 8 1013.1 1013.1 1.8
19/07:30am 12.1 10.0 6.6 69 2.6 W 7 9 4 5 1012.6 1012.6 1.8
19/07:00am 10.5 8.3 6.1 74 2.0 WNW 7 11 4 6 1012.5 1012.5 1.8
19/06:30am 8.7 5.5 5.3 79 1.5 WSW 11 13 6 7 1011.7 1011.7 1.8
19/06:00am 8.7 6.0 5.4 80 1.5 WSW 9 13 5 7 1011.3 1011.3 1.8
19/05:30am 8.5 5.4 5.4 81 1.4 WSW 11 13 6 7 1010.9 1010.9 1.8
19/05:00am 9.1 4.4 6.0 81 1.4 WNW 20 24 11 13 1010.3 1010.3 1.8
19/04:30am 7.4 3.7 4.7 83 1.2 WSW 13 15 7 8 1010.1 1010.1 1.8
19/04:00am 8.0 5.4 6.0 87 0.9 W 9 11 5 6 1010.0 1010.0 1.8
19/03:30am 8.7 6.0 5.8 82 1.3 W 9 11 5 6 1009.8 1009.8 1.8
19/03:00am 6.3 2.9 3.8 84 1.1 W 11 13 6 7 1009.7 1009.7 1.8
19/02:30am 9.2 6.5 5.8 79 1.6 W 9 13 5 7 1009.6 1009.6 1.8
19/02:00am 9.0 5.5 5.6 79 1.5 W 13 15 7 8 1009.6 1009.6 1.8
19/01:30am 9.7 5.0 6.2 79 1.6 WNW 20 22 11 12 1009.4 1009.4 1.8
19/01:00am 8.0 3.3 5.3 83 1.2 W 19 22 10 12 1009.2 1009.2 1.8
19/12:30am 9.6 7.0 6.3 80 1.5 WSW 9 9 5 5 1009.2 1009.2 1.8
19/12:00am 9.9 7.3 6.1 77 1.8 W 9 11 5 6 1009.0 1009.0 1.8
 
Date/Time
EDT
Temp
°C
App
Temp
°C
Dew
Point
Rel
Hum
%
Delta-T
°C
Wind Press
QNH
hPa
Press
MSL
hPa
Rain
since 9 am
mm
Dir
 
Spd
km/h
Gust
km/h
Spd
kts
Gust
kts
18/11:30pm 10.8 7.9 6.6 75 2.0 WSW 11 13 6 7 1008.6 1008.6 1.8
18/11:00pm 9.9 6.7 5.3 73 2.1 W 11 13 6 7 1008.4 1008.4 1.8
18/10:30pm 11.5 9.1 6.8 73 2.2 SW 9 13 5 7 1008.2 1008.2 1.8
18/10:00pm 11.4 7.7 6.5 72 2.3 WSW 15 20 8 11 1007.8 1007.8 1.8
18/09:30pm 12.6 8.4 7.3 70 2.6 W 19 28 10 15 1007.4 1007.4 1.8
18/09:00pm 13.0 8.6 7.5 69 2.7 W 20 26 11 14 1006.7 1006.7 1.8
18/08:30pm 13.7 9.6 7.9 68 2.9 W 19 26 10 14 1006.4 1006.4 1.8
18/08:00pm 14.8 10.5 7.8 63 3.5 WSW 20 26 11 14 1006.0 1006.0 1.8
18/07:30pm 15.5 10.9 8.0 61 3.8 W 22 30 12 16 1005.5 1005.5 1.8
18/07:00pm 15.3 11.2 8.5 64 3.5 WSW 20 28 11 15 1005.1 1005.1 1.8
18/06:30pm 14.7 9.0 11.1 79 1.9 NW 32 39 17 21 1004.6 1004.6 1.8
18/06:00pm 14.9 10.6 10.7 76 2.2 NW 24 30 13 16 1004.4 1004.4 1.8
18/05:30pm 15.6 12.3 11.6 77 2.2 NW 20 26 11 14 1004.0 1004.0 1.8
18/05:00pm 14.2 11.7 11.2 82 1.6 W 15 17 8 9 1004.2 1004.2 1.8
18/04:30pm 13.0 11.6 10.9 87 1.1 WSW 9 15 5 8 1004.0 1004.0 1.8
18/04:00pm 13.3 7.2 9.7 79 1.9 W 32 39 17 21 1004.4 1004.4 0.6
18/03:30pm 14.3 9.8 11.3 82 1.6 WNW 26 35 14 19 1004.0 1004.0 0.2
18/03:12pm 13.9 5.4 10.7 81 1.7 WNW 46 61 25 33 1003.9 1003.9 0.0
18/03:04pm 16.0 9.2 10.7 71 2.8 NW 37 61 20 33 1003.3 1003.3 0.0
18/03:00pm 17.1 10.7 10.7 66 3.4 NW 35 43 19 23 1003.3 1003.3 0.0
18/02:30pm 17.2 12.4 11.5 69 3.1 NW 28 39 15 21 1003.3 1003.3 0.0
18/02:00pm 17.9 13.9 13.0 73 2.8 NW 26 35 14 19 1003.5 1003.5 0.0
18/01:30pm 17.9 13.8 12.6 71 3.0 NNW 26 32 14 17 1003.6 1003.6 0.0
18/01:00pm 18.0 14.2 12.5 70 3.1 NNW 24 30 13 16 1003.7 1003.7 0.0
18/12:30pm 17.5 13.2 12.0 70 3.0 NNW 26 32 14 17 1004.0 1004.0 0.0
18/12:00pm 17.7 13.0 11.9 69 3.2 N 28 33 15 18 1004.2 1004.2 0.0
18/11:30am 17.0 11.3 11.1 68 3.2 N 32 39 17 21 1004.2 1004.2 0.0
18/11:00am 17.9 12.5 10.8 63 3.8 N 30 39 16 21 1004.3 1004.3 0.0
18/10:30am 16.8 11.9 11.3 70 3.0 N 28 33 15 18 1004.6 1004.6 0.0
18/10:00am 17.1 12.3 11.8 71 2.9 N 28 33 15 18 1004.9 1004.9 0.0
18/09:30am 16.7 11.5 11.6 72 2.8 N 30 39 16 21 1005.2 1005.2 0.0
18/09:00am 16.0 10.9 10.5 70 2.9 NNW 28 35 15 19 1005.4 1005.4 0.0
18/08:30am 15.9 11.6 10.7 71 2.8 NNW 24 30 13 16 1005.6 1005.6 0.0
18/08:00am 15.5 11.3 9.8 69 3.0 N 22 30 12 16 1005.6 1005.6 0.0
18/07:30am 15.3 10.8 9.9 70 2.8 NNW 24 32 13 17 1005.6 1005.6 0.0
18/07:00am 11.3 8.8 8.2 81 1.5 S 11 15 6 8 1005.6 1005.6 0.0
18/06:30am 10.6 7.6 7.7 82 1.4 S 13 15 7 8 1005.7 1005.7 0.0
18/06:00am 10.3 7.6 7.5 83 1.3 S 11 15 6 8 1005.7 1005.7 0.0
18/05:30am 10.6 8.0 7.8 83 1.4 SE 11 11 6 6 1005.9 1005.9 0.0
18/05:00am 10.3 8.4 7.5 83 1.3 S 7 9 4 5 1006.1 1006.1 0.0
18/04:30am 9.8 7.4 7.2 84 1.2 SSE 9 11 5 6 1006.0 1006.0 0.0
18/04:00am 8.6 6.1 6.6 87 0.9 SSE 9 9 5 5 1006.1 1006.1 0.0
18/03:30am 7.7 5.0 5.5 86 1.0 SSE 9 11 5 6 1006.1 1006.1 0.0
18/03:00am 7.7 5.0 5.5 86 1.0 S 9 11 5 6 1006.1 1006.1 0.0
18/02:30am 7.4 5.0 5.2 86 1.0 S 7 9 4 5 1006.1 1006.1 0.0
18/02:00am 7.9 5.5 5.2 83 1.2 S 7 7 4 4 1006.1 1006.1 0.0
18/01:30am 9.4 7.2 5.4 76 1.8 SW 6 7 3 4 1006.4 1006.4 0.0
18/01:00am 10.8 8.4 5.3 69 2.5 SW 7 9 4 5 1006.5 1006.5 0.0
18/12:30am 11.7 9.3 5.3 65 2.9 SW 7 11 4 6 1006.7 1006.7 0.0
18/12:00am 11.3 8.2 5.4 67 2.7 W 11 13 6 7 1007.0 1007.0 0.0
 
Date/Time
EDT
Temp
°C
App
Temp
°C
Dew
Point
Rel
Hum
%
Delta-T
°C
Wind Press
QNH
hPa
Press
MSL
hPa
Rain
since 9 am
mm
Dir
 
Spd
km/h
Gust
km/h
Spd
kts
Gust
kts
17/11:30pm 11.7 8.1 5.1 64 3.0 WSW 13 15 7 8 1007.0 1007.0 0.0
17/11:00pm 11.3 6.9 5.0 65 2.9 W 17 19 9 10 1007.3 1007.3 0.0
17/10:30pm 12.7 8.1 5.4 61 3.4 W 19 22 10 12 1007.5 1007.5 0.0
17/10:00pm 12.8 8.0 4.8 58 3.7 W 19 20 10 11 1007.5 1007.5 0.0
17/09:30pm 12.9 8.5 4.8 58 3.7 W 17 19 9 10 1007.4 1007.4 0.0
17/09:00pm 14.1 9.2 4.9 54 4.3 W 20 24 11 13 1007.3 1007.3 0.0
17/08:30pm 15.7 10.1 5.3 50 4.9 WNW 24 32 13 17 1007.1 1007.1 0.0
17/08:00pm 16.4 10.8 5.4 48 5.3 WNW 24 32 13 17 1006.8 1006.8 0.0
17/07:30pm 16.8 9.6 6.0 49 5.3 WNW 33 41 18 22 1006.5 1006.5 0.0
17/07:00pm 17.1 10.6 6.6 50 5.2 WNW 30 37 16 20 1006.1 1006.1 0.0
17/06:30pm 17.4 10.5 6.6 49 5.3 W 32 39 17 21 1005.7 1005.7 0.0
17/06:00pm 17.0 10.4 8.4 57 4.4 NW 33 41 18 22 1005.4 1005.4 0.0
17/05:30pm 17.6 9.9 8.7 56 4.6 NW 39 48 21 26 1005.5 1005.5 0.0
17/05:00pm 16.8 9.3 8.0 56 4.5 NW 37 48 20 26 1005.7 1005.7 0.0
17/04:30pm 16.7 8.9 6.8 52 4.9 NW 37 48 20 26 1005.6 1005.6 0.0
17/04:00pm 18.8 11.5 7.3 47 5.8 NW 35 44 19 24 1005.5 1005.5 0.0
17/03:30pm 17.6 10.8 6.8 49 5.4 NW 32 39 17 21 1005.8 1005.8 0.0
17/03:00pm 16.2 8.7 7.9 58 4.2 NW 37 46 20 25 1005.9 1005.9 0.0
17/02:30pm 17.3 10.0 7.4 52 5.0 NW 35 44 19 24 1005.6 1005.6 0.0
17/02:00pm 16.1 9.1 8.6 61 3.8 NW 35 46 19 25 1005.8 1005.8 0.0
17/01:30pm 15.8 9.7 8.3 61 3.8 NW 30 39 16 21 1006.0 1006.0 0.0
17/01:00pm 15.4 9.9 7.7 60 3.9 NW 26 35 14 19 1006.1 1006.1 0.0
17/12:30pm 16.5 13.0 7.2 54 4.6 W 15 30 8 16 1006.0 1006.0 0.0
17/12:00pm 14.9 9.6 8.4 65 3.3 W 26 33 14 18 1006.2 1006.2 0.0
17/11:30am 15.9 11.6 6.9 55 4.4 NW 19 30 10 16 1005.6 1005.6 0.0
17/11:00am 16.1 11.6 6.8 54 4.6 W 20 32 11 17 1005.4 1005.4 0.0
17/10:30am 14.9 11.0 7.2 60 3.8 WNW 17 28 9 15 1005.3 1005.3 0.0

Other Formats:

Comma delimited format used in spreadsheet applications
http://www.bom.gov.au/fwo/IDT60801/IDT60801.95960.axf

JavaScript Object Notation format (JSON) in row-major order
http://www.bom.gov.au/fwo/IDT60801/IDT60801.95960.json